createdAt,value
2022-12-12T00:01:49.215Z,14.27
2022-12-12T00:04:16.004Z,13.73
2022-12-12T00:06:44.143Z,13.50
2022-12-12T00:09:10.939Z,16.30
2022-12-12T00:11:37.699Z,12.27
2022-12-12T00:14:05.014Z,13.83
2022-12-12T00:16:31.726Z,14.37
2022-12-12T00:18:59.363Z,11.67
2022-12-12T00:21:28.327Z,13.33
2022-12-12T00:23:55.800Z,16.83
2022-12-12T00:26:27.130Z,14.00
2022-12-12T00:28:54.039Z,15.37
2022-12-12T00:31:20.865Z,12.80
2022-12-12T00:33:49.958Z,13.03
2022-12-12T00:36:19.769Z,15.33
2022-12-12T00:38:47.001Z,11.80
2022-12-12T00:41:13.813Z,13.07
2022-12-12T00:43:41.028Z,15.77
2022-12-12T00:46:08.349Z,13.67
2022-12-12T00:48:35.295Z,13.87
2022-12-12T00:51:08.727Z,18.83
2022-12-12T00:53:37.005Z,19.63
2022-12-12T00:56:04.126Z,27.70
2022-12-12T00:58:31.768Z,28.90
2022-12-12T01:01:06.208Z,26.37
2022-12-12T01:03:34.945Z,22.13
2022-12-12T01:06:01.881Z,25.20
2022-12-12T01:08:29.030Z,25.27
2022-12-12T01:10:56.459Z,21.13
2022-12-12T01:13:23.890Z,16.20
2022-12-12T01:15:50.652Z,13.27
2022-12-12T01:18:18.152Z,12.30
2022-12-12T01:20:45.520Z,14.03
2022-12-12T01:23:12.357Z,15.33
2022-12-12T01:25:39.119Z,12.97
2022-12-12T01:28:06.172Z,16.13
2022-12-12T01:30:33.137Z,13.70
2022-12-12T01:32:59.865Z,14.83
2022-12-12T01:35:26.876Z,16.50
2022-12-12T01:37:54.284Z,14.60
2022-12-12T01:40:30.658Z,20.70
2022-12-12T01:42:57.451Z,19.97
2022-12-12T01:46:02.522Z,21.20
2022-12-12T01:48:39.898Z,17.57
2022-12-12T01:51:18.124Z,16.87
2022-12-12T01:53:45.735Z,18.10
2022-12-12T01:56:15.454Z,17.77
2022-12-12T01:58:45.936Z,19.13
2022-12-12T02:01:13.073Z,18.67
2022-12-12T02:03:40.601Z,16.77
2022-12-12T02:06:12.166Z,17.03
2022-12-12T02:08:39.753Z,14.47
2022-12-12T02:11:06.630Z,16.27
2022-12-12T02:13:34.906Z,15.73
2022-12-12T02:16:20.565Z,18.00
2022-12-12T02:19:02.954Z,14.90
2022-12-12T02:22:11.970Z,15.90
2022-12-12T02:24:59.305Z,19.03
2022-12-12T02:27:39.864Z,14.03
2022-12-12T02:30:12.993Z,11.93
2022-12-12T02:32:58.270Z,18.17
2022-12-12T02:35:40.166Z,10.03
2022-12-12T02:38:09.890Z,16.90
2022-12-12T02:41:11.066Z,13.20
2022-12-12T02:43:51.856Z,12.87
2022-12-12T02:46:27.667Z,15.13
2022-12-12T02:49:03.089Z,12.17
2022-12-12T02:51:32.074Z,14.13
2022-12-12T02:54:05.484Z,16.07
2022-12-12T02:56:53.373Z,14.53
2022-12-12T02:59:35.332Z,20.13
2022-12-12T03:02:15.598Z,14.10
2022-12-12T03:05:03.968Z,13.17
2022-12-12T03:07:48.376Z,16.03
2022-12-12T03:10:32.316Z,14.50
2022-12-12T03:13:42.584Z,15.23
2022-12-12T03:16:25.570Z,16.83
2022-12-12T03:19:00.746Z,14.83
2022-12-12T03:21:43.215Z,15.43
2022-12-12T03:24:28.146Z,13.57
2022-12-12T03:27:20.554Z,16.70
2022-12-12T03:29:55.857Z,15.43
2022-12-12T03:32:27.631Z,13.67
2022-12-12T03:35:03.177Z,20.67
2022-12-12T03:37:41.522Z,16.97
2022-12-12T03:40:20.608Z,17.43
2022-12-12T03:43:08.013Z,18.33
2022-12-12T03:45:40.989Z,16.97
2022-12-12T03:48:27.594Z,17.67
2022-12-12T03:51:00.495Z,16.50
2022-12-12T03:53:59.266Z,20.73
2022-12-12T03:56:34.399Z,17.73
2022-12-12T03:59:10.162Z,16.67
2022-12-12T04:01:44.049Z,15.63
2022-12-12T04:04:34.465Z,12.50
2022-12-12T04:07:13.703Z,16.67
2022-12-12T04:09:59.851Z,17.17
2022-12-12T04:12:58.569Z,13.43
2022-12-12T04:15:34.185Z,15.90
2022-12-12T04:18:17.010Z,17.83
2022-12-12T04:21:12.855Z,16.17
2022-12-12T04:23:54.479Z,15.27
2022-12-12T04:26:40.619Z,18.00
2022-12-12T04:29:19.177Z,19.40
2022-12-12T04:32:00.921Z,20.50
2022-12-12T04:34:56.057Z,22.50
2022-12-12T04:37:27.717Z,19.43
2022-12-12T04:39:58.226Z,20.63
2022-12-12T04:42:29.303Z,22.63
2022-12-12T04:45:03.120Z,19.77
2022-12-12T04:47:31.934Z,23.20
2022-12-12T04:50:00.575Z,23.77
2022-12-12T04:52:31.045Z,27.07
2022-12-12T04:55:09.085Z,24.67
2022-12-12T04:57:41.226Z,24.00
2022-12-12T05:00:10.133Z,27.43
2022-12-12T05:02:45.239Z,29.30
2022-12-12T05:05:44.499Z,25.33
2022-12-12T05:08:14.031Z,24.47
2022-12-12T05:10:46.190Z,27.40
2022-12-12T05:13:18.282Z,22.50
2022-12-12T05:15:46.813Z,29.00
2022-12-12T05:18:13.864Z,22.73
2022-12-12T05:20:40.564Z,24.67
2022-12-12T05:23:07.324Z,28.13
2022-12-12T05:25:34.029Z,29.23
2022-12-12T05:28:00.689Z,26.43
2022-12-12T05:30:27.545Z,27.47
2022-12-12T05:32:54.605Z,27.77
2022-12-12T05:35:22.035Z,24.57
2022-12-12T05:37:51.928Z,23.93
2022-12-12T05:40:20.211Z,23.63
2022-12-12T05:42:48.038Z,22.87
2022-12-12T05:45:15.337Z,23.87
2022-12-12T05:47:42.062Z,26.57
2022-12-12T05:50:08.852Z,25.42
2022-12-12T05:52:35.657Z,25.70
2022-12-12T05:55:02.765Z,23.47
2022-12-12T05:57:29.758Z,27.77
2022-12-12T05:59:56.432Z,29.13
2022-12-12T06:02:23.179Z,27.30
2022-12-12T06:04:49.917Z,20.37
2022-12-12T06:07:16.643Z,23.03
2022-12-12T06:09:43.472Z,26.23
2022-12-12T06:12:10.134Z,27.90
2022-12-12T06:14:36.778Z,28.63
2022-12-12T06:17:03.511Z,26.27
2022-12-12T06:19:30.364Z,25.70
2022-12-12T06:21:57.213Z,34.17
2022-12-12T06:24:24.774Z,32.20
2022-12-12T06:26:51.454Z,27.87
2022-12-12T06:29:18.134Z,30.63
2022-12-12T06:31:48.515Z,29.30
2022-12-12T06:34:15.698Z,31.80
2022-12-12T06:36:42.454Z,33.87
2022-12-12T06:39:09.754Z,34.57
2022-12-12T06:41:36.918Z,28.23
2022-12-12T06:44:04.356Z,31.77
2022-12-12T06:46:31.287Z,32.10
2022-12-12T06:48:58.884Z,29.37
2022-12-12T06:51:33.206Z,30.30
2022-12-12T06:54:00.198Z,28.17
2022-12-12T06:56:27.373Z,27.50
2022-12-12T06:58:55.100Z,28.87
2022-12-12T07:01:23.164Z,29.90
2022-12-12T07:03:51.652Z,33.67
2022-12-12T07:06:20.480Z,39.37
2022-12-12T07:08:47.544Z,33.23
2022-12-12T07:11:17.739Z,41.33
2022-12-12T07:13:44.571Z,46.87
2022-12-12T07:16:11.519Z,46.83
2022-12-12T07:18:38.842Z,46.30
2022-12-12T07:21:07.734Z,58.33
2022-12-12T07:23:37.175Z,53.17
2022-12-12T07:26:06.049Z,62.47
2022-12-12T07:28:33.001Z,52.40
2022-12-12T07:31:01.281Z,52.40
2022-12-12T07:33:39.544Z,62.23
2022-12-12T07:36:10.168Z,65.63
2022-12-12T07:38:37.093Z,58.53
2022-12-12T07:41:06.037Z,58.97
2022-12-12T07:43:38.556Z,56.23
2022-12-12T07:46:11.723Z,54.30
2022-12-12T07:48:38.552Z,46.33
2022-12-12T07:51:05.497Z,52.93
2022-12-12T07:53:32.422Z,53.57
2022-12-12T07:55:59.369Z,58.60
2022-12-12T07:58:26.115Z,56.63
2022-12-12T08:00:52.849Z,60.07
2022-12-12T08:03:19.566Z,47.47
2022-12-12T08:05:46.281Z,54.30
2022-12-12T08:08:13.018Z,54.00
2022-12-12T08:10:41.065Z,54.10
2022-12-12T08:13:07.909Z,49.33
2022-12-12T08:15:34.956Z,44.70
2022-12-12T08:18:02.078Z,55.97
2022-12-12T08:20:29.204Z,47.87
2022-12-12T08:22:55.936Z,50.47
2022-12-12T08:25:22.621Z,47.80
2022-12-12T08:27:49.366Z,51.60
2022-12-12T08:30:16.384Z,49.17
2022-12-12T08:32:43.287Z,46.23
2022-12-12T08:35:10.112Z,46.23
2022-12-12T08:37:37.103Z,43.80
2022-12-12T08:40:04.300Z,40.23
2022-12-12T08:42:31.015Z,40.13
2022-12-12T08:44:57.659Z,38.67
2022-12-12T08:47:24.517Z,34.73
2022-12-12T08:49:51.224Z,34.47
2022-12-12T08:52:17.916Z,31.73
2022-12-12T08:54:44.736Z,37.63
2022-12-12T08:57:11.518Z,38.63
2022-12-12T08:59:38.274Z,31.37
2022-12-12T09:02:05.031Z,33.30
2022-12-12T09:04:33.534Z,31.83
2022-12-12T09:07:04.920Z,31.57
2022-12-12T09:09:34.857Z,30.80
2022-12-12T09:12:01.693Z,30.67
2022-12-12T09:14:28.353Z,33.83
2022-12-12T09:16:55.267Z,32.93
2022-12-12T09:19:21.984Z,31.87
2022-12-12T09:21:48.715Z,31.67
2022-12-12T09:24:16.694Z,29.93
2022-12-12T09:26:43.361Z,31.27
2022-12-12T09:29:10.853Z,29.43
2022-12-12T09:31:37.583Z,34.73
2022-12-12T09:34:04.329Z,34.47
2022-12-12T09:36:31.028Z,35.80
2022-12-12T09:38:59.134Z,31.87
2022-12-12T09:41:27.216Z,31.50
2022-12-12T09:44:02.637Z,30.60
2022-12-12T09:46:55.515Z,28.00
2022-12-12T09:49:43.989Z,30.47
2022-12-12T09:52:17.402Z,26.20
2022-12-12T09:54:45.121Z,30.50
2022-12-12T09:57:35.643Z,32.37
2022-12-12T10:00:04.936Z,33.00
2022-12-12T10:02:48.047Z,31.03
2022-12-12T10:05:17.852Z,30.73
2022-12-12T10:07:55.974Z,29.43
2022-12-12T10:10:27.394Z,29.90
2022-12-12T10:12:55.200Z,32.60
2022-12-12T10:15:42.178Z,29.07
2022-12-12T10:18:20.976Z,29.83
2022-12-12T10:20:51.385Z,29.47
2022-12-12T10:23:46.242Z,32.47
2022-12-12T10:26:22.482Z,32.43
2022-12-12T10:28:57.237Z,37.10
2022-12-12T10:31:40.334Z,35.57
2022-12-12T10:34:22.572Z,29.90
2022-12-12T10:37:26.156Z,30.27
2022-12-12T10:40:18.678Z,30.63
2022-12-12T10:42:52.841Z,31.63
2022-12-12T10:45:42.979Z,30.63
2022-12-12T10:48:10.744Z,34.23
2022-12-12T10:50:42.405Z,31.63
2022-12-12T10:53:11.597Z,29.40
2022-12-12T10:56:02.503Z,28.77
2022-12-12T10:58:40.223Z,28.23
2022-12-12T11:01:32.986Z,29.37
2022-12-12T11:04:07.158Z,32.83
2022-12-12T11:06:40.493Z,28.57
2022-12-12T11:09:09.151Z,29.93
2022-12-12T11:11:35.872Z,32.27
2022-12-12T11:14:19.913Z,26.10
2022-12-12T11:16:46.632Z,32.37
2022-12-12T11:19:25.065Z,32.17
2022-12-12T11:21:54.640Z,35.30
2022-12-12T11:24:29.045Z,34.83
2022-12-12T11:27:02.602Z,32.30
2022-12-12T11:29:45.406Z,31.20
2022-12-12T11:32:16.209Z,39.87
2022-12-12T11:34:53.351Z,33.20
2022-12-12T11:37:23.945Z,32.23
2022-12-12T11:39:52.988Z,29.13
2022-12-12T11:42:25.534Z,32.67
2022-12-12T11:45:19.570Z,29.37
2022-12-12T11:47:47.720Z,28.80
2022-12-12T11:50:29.508Z,30.77
2022-12-12T11:53:00.429Z,33.80
2022-12-12T11:55:52.781Z,27.27
2022-12-12T11:58:32.694Z,27.83
2022-12-12T12:01:23.202Z,30.60
2022-12-12T12:04:40.830Z,25.43
2022-12-12T12:07:40.354Z,30.03
2022-12-12T12:10:13.030Z,26.93
2022-12-12T12:12:57.451Z,24.93
2022-12-12T12:15:35.183Z,24.73
2022-12-12T12:18:09.378Z,25.37
2022-12-12T12:20:51.220Z,26.03
2022-12-12T12:23:54.792Z,26.13
2022-12-12T12:26:43.398Z,23.90
2022-12-12T12:29:20.443Z,28.17
2022-12-12T12:32:22.653Z,25.27
2022-12-12T12:34:55.125Z,26.33
2022-12-12T12:37:30.696Z,28.93
2022-12-12T12:40:09.761Z,28.33
2022-12-12T12:43:01.905Z,25.03
2022-12-12T12:45:39.240Z,28.77
2022-12-12T12:48:31.642Z,23.80
2022-12-12T12:51:34.395Z,26.57
2022-12-12T12:54:03.955Z,24.73
2022-12-12T12:56:33.815Z,26.80
2022-12-12T12:59:04.392Z,24.00
2022-12-12T13:01:36.707Z,23.70
2022-12-12T13:04:22.451Z,21.80
2022-12-12T13:07:00.961Z,24.10
2022-12-12T13:09:41.469Z,25.67
2022-12-12T13:12:38.677Z,20.17
2022-12-12T13:15:14.314Z,21.37
2022-12-12T13:17:46.877Z,18.90
2022-12-12T13:20:21.022Z,19.50
2022-12-12T13:22:50.973Z,20.07
2022-12-12T13:25:36.177Z,19.13
2022-12-12T13:28:10.893Z,18.57
2022-12-12T13:30:46.412Z,19.47
2022-12-12T13:33:51.703Z,21.03
2022-12-12T13:36:30.012Z,21.67
2022-12-12T13:39:00.213Z,20.00
2022-12-12T13:41:26.926Z,20.30
2022-12-12T13:43:59.241Z,16.33
2022-12-12T13:46:28.735Z,19.73
2022-12-12T13:49:14.011Z,18.37
2022-12-12T13:51:43.205Z,15.50
2022-12-12T13:54:13.856Z,19.17
2022-12-12T13:56:42.266Z,19.50
2022-12-12T13:59:27.098Z,23.20
2022-12-12T14:02:20.170Z,19.47
2022-12-12T14:04:47.799Z,17.03
2022-12-12T14:07:17.549Z,17.93
2022-12-12T14:09:49.299Z,22.80
2022-12-12T14:12:31.739Z,19.33
2022-12-12T14:15:17.857Z,20.33
2022-12-12T14:17:53.433Z,22.33
2022-12-12T14:20:35.561Z,19.87
2022-12-12T14:23:09.879Z,19.40
2022-12-12T14:25:38.969Z,19.07
2022-12-12T14:28:25.345Z,18.53
2022-12-12T14:31:17.453Z,17.40
2022-12-12T14:34:05.814Z,17.37
2022-12-12T14:36:49.639Z,18.63
2022-12-12T14:39:31.268Z,18.57
2022-12-12T14:41:59.061Z,16.43
2022-12-12T14:44:35.239Z,18.00
2022-12-12T14:47:08.563Z,15.97
2022-12-12T14:49:35.576Z,16.47
2022-12-12T14:52:02.770Z,17.53
2022-12-12T14:54:31.090Z,20.17
2022-12-12T14:56:59.277Z,17.47
2022-12-12T14:59:29.617Z,20.60
2022-12-12T15:02:21.218Z,15.73
2022-12-12T15:04:52.705Z,14.87
2022-12-12T15:07:34.735Z,17.03
2022-12-12T15:10:01.967Z,15.30
2022-12-12T15:12:43.044Z,14.80
2022-12-12T15:15:30.997Z,14.67
2022-12-12T15:18:00.360Z,13.70
2022-12-12T15:20:29.862Z,14.60
2022-12-12T15:23:05.471Z,26.33
2022-12-12T15:25:43.005Z,25.10
2022-12-12T15:28:18.869Z,14.53
2022-12-12T15:30:49.199Z,18.00
2022-12-12T15:33:22.056Z,18.97
2022-12-12T15:36:02.737Z,19.33
2022-12-12T15:38:30.920Z,16.20
2022-12-12T15:40:59.831Z,15.33
2022-12-12T15:43:29.077Z,16.60
2022-12-12T15:46:02.503Z,15.77
2022-12-12T15:48:29.233Z,13.40
2022-12-12T15:51:04.972Z,18.43
2022-12-12T15:53:37.581Z,17.47
2022-12-12T15:56:14.153Z,24.17
2022-12-12T15:58:46.760Z,25.27
2022-12-12T16:01:21.767Z,18.23
2022-12-12T16:04:09.997Z,17.50
2022-12-12T16:06:40.881Z,17.67
2022-12-12T16:09:10.563Z,17.37
2022-12-12T16:11:41.899Z,20.13
2022-12-12T16:14:23.788Z,23.63
2022-12-12T16:17:20.650Z,17.40
2022-12-12T16:19:55.140Z,20.77
2022-12-12T16:22:39.745Z,32.47
2022-12-12T16:25:25.527Z,20.40
2022-12-12T16:28:24.777Z,21.97
2022-12-12T16:31:03.691Z,19.87
2022-12-12T16:33:35.094Z,20.33
2022-12-12T16:36:04.859Z,17.87
2022-12-12T16:38:32.312Z,18.73
2022-12-12T16:41:01.824Z,17.50
2022-12-12T16:43:28.890Z,18.30
2022-12-12T16:45:56.575Z,16.37
2022-12-12T16:48:31.454Z,13.73
2022-12-12T16:51:02.201Z,21.73
2022-12-12T16:53:28.978Z,19.20
2022-12-12T16:55:56.608Z,18.67
2022-12-12T16:58:26.384Z,20.13
2022-12-12T17:00:53.568Z,20.93
2022-12-12T17:03:23.303Z,17.13
2022-12-12T17:05:51.257Z,20.93
2022-12-12T17:08:18.724Z,18.90
2022-12-12T17:10:48.022Z,18.93
2022-12-12T17:13:17.537Z,18.20
2022-12-12T17:15:44.266Z,22.30
2022-12-12T17:18:11.574Z,22.70
2022-12-12T17:20:38.296Z,17.47
2022-12-12T17:25:51.178Z,18.20
2022-12-12T17:28:20.050Z,19.80
2022-12-12T17:30:49.847Z,18.03
2022-12-12T17:33:19.443Z,24.67
2022-12-12T17:35:56.248Z,24.37
2022-12-12T17:38:22.945Z,18.83
2022-12-12T17:40:53.727Z,25.00
2022-12-12T17:43:20.495Z,20.10
2022-12-12T17:45:57.579Z,17.33
2022-12-12T17:48:24.300Z,21.30
2022-12-12T17:51:05.185Z,21.30
2022-12-12T17:53:38.185Z,21.27
2022-12-12T17:56:13.821Z,26.00
2022-12-12T17:58:42.864Z,20.67
2022-12-12T18:01:19.063Z,22.93
2022-12-12T18:03:46.403Z,20.73
2022-12-12T18:06:14.528Z,18.30
2022-12-12T18:08:41.965Z,25.30
2022-12-12T18:11:10.821Z,20.07
2022-12-12T18:13:39.009Z,19.07
2022-12-12T18:16:07.415Z,25.57
2022-12-12T18:18:34.257Z,19.90
2022-12-12T18:21:42.920Z,18.13
2022-12-12T18:24:03.816Z,20.07
2022-12-12T18:26:30.656Z,24.03
2022-12-12T18:28:59.882Z,19.17
2022-12-12T18:31:27.371Z,24.13
2022-12-12T18:33:54.342Z,22.43
2022-12-12T18:36:23.554Z,17.53
2022-12-12T18:38:50.705Z,20.90
2022-12-12T18:41:18.198Z,22.37
2022-12-12T18:43:44.933Z,19.13
2022-12-12T18:46:14.399Z,25.97
2022-12-12T18:48:42.922Z,23.03
2022-12-12T18:51:12.466Z,22.30
2022-12-12T18:53:41.224Z,23.40
2022-12-12T18:56:09.927Z,25.43
2022-12-12T18:58:37.581Z,26.23
2022-12-12T19:01:16.756Z,22.33
2022-12-12T19:03:45.209Z,27.80
2022-12-12T19:06:17.598Z,22.13
2022-12-12T19:08:44.527Z,29.40
2022-12-12T19:11:12.011Z,24.90
2022-12-12T19:13:39.308Z,21.53
2022-12-12T19:16:12.441Z,22.47
2022-12-12T19:18:39.298Z,23.80
2022-12-12T19:21:08.179Z,27.93
2022-12-12T19:23:36.345Z,24.13
2022-12-12T19:26:08.066Z,25.80
2022-12-12T19:28:35.288Z,28.27
2022-12-12T19:31:10.539Z,30.50
2022-12-12T19:33:37.737Z,28.70
2022-12-12T19:36:13.340Z,26.40
2022-12-12T19:38:40.341Z,24.93
2022-12-12T19:41:08.598Z,23.50
2022-12-12T19:43:35.971Z,24.60
2022-12-12T19:46:23.085Z,27.77
2022-12-12T19:48:54.510Z,26.40
2022-12-12T19:51:22.875Z,25.13
2022-12-12T19:56:52.268Z,27.50
2022-12-12T19:59:19.876Z,32.97
2022-12-12T20:01:46.962Z,28.13
2022-12-12T20:04:16.898Z,30.50
2022-12-12T20:06:45.879Z,32.22
2022-12-12T20:09:25.621Z,24.40
2022-12-12T20:11:53.379Z,26.20
2022-12-12T20:14:22.818Z,22.53
2022-12-12T20:16:50.659Z,26.13
2022-12-12T20:19:17.450Z,27.60
2022-12-12T20:22:03.301Z,37.00
2022-12-12T20:24:32.057Z,31.63
2022-12-12T20:27:03.607Z,29.60
2022-12-12T20:29:31.132Z,29.77
2022-12-12T20:31:59.679Z,29.83
2022-12-12T20:34:26.693Z,31.83
2022-12-12T20:36:55.660Z,31.63
2022-12-12T20:39:24.594Z,43.78
2022-12-12T20:41:51.391Z,31.20
2022-12-12T20:44:18.195Z,34.37
2022-12-12T20:46:46.529Z,32.10
2022-12-12T20:49:16.410Z,36.13
2022-12-12T20:51:59.369Z,27.90
2022-12-12T20:54:28.431Z,36.13
2022-12-12T20:56:55.963Z,31.75
2022-12-12T20:59:23.647Z,35.17
2022-12-12T21:01:50.878Z,30.70
2022-12-12T21:04:17.612Z,26.23
2022-12-12T21:06:48.095Z,28.17
2022-12-12T21:09:22.589Z,36.30
2022-12-12T21:11:49.706Z,35.97
2022-12-12T21:14:16.400Z,30.07
2022-12-12T21:16:43.290Z,35.37
2022-12-12T21:19:12.439Z,39.65
2022-12-12T21:21:41.275Z,31.40
2022-12-12T21:24:09.627Z,32.27
2022-12-12T21:26:36.257Z,31.02
2022-12-12T21:29:04.784Z,37.13
2022-12-12T21:31:35.232Z,35.17
2022-12-12T21:34:02.897Z,37.43
2022-12-12T21:36:30.287Z,35.92
2022-12-12T21:38:58.700Z,35.33
2022-12-12T21:41:26.545Z,38.15
2022-12-12T21:43:54.776Z,31.80
2022-12-12T21:46:23.722Z,35.30
2022-12-12T21:49:11.292Z,38.63
2022-12-12T21:51:39.307Z,32.25
2022-12-12T21:54:07.497Z,34.65
2022-12-12T21:56:34.322Z,35.85
2022-12-12T21:59:01.062Z,44.13
2022-12-12T22:01:27.977Z,38.60
2022-12-12T22:03:55.315Z,45.55
2022-12-12T22:06:25.424Z,40.78
2022-12-12T22:08:55.108Z,71.13
2022-12-12T22:11:40.562Z,37.05
2022-12-12T22:14:10.622Z,121.65
2022-12-12T22:16:37.887Z,65.28
2022-12-12T22:19:10.991Z,64.10
2022-12-12T22:21:38.199Z,42.88
2022-12-12T22:24:05.827Z,33.50
2022-12-12T22:26:35.850Z,41.70
2022-12-12T22:29:05.577Z,36.08
2022-12-12T22:31:34.848Z,36.67
2022-12-12T22:34:06.839Z,42.28
2022-12-12T22:36:37.695Z,37.87
2022-12-12T22:39:10.327Z,37.58
2022-12-12T22:41:36.994Z,33.95
2022-12-12T22:44:06.069Z,37.60
2022-12-12T22:46:33.673Z,35.45
2022-12-12T22:49:02.540Z,35.20
2022-12-12T22:51:32.822Z,36.15
2022-12-12T22:54:02.611Z,38.95
2022-12-12T22:56:31.101Z,35.20
2022-12-12T22:58:58.613Z,36.28
2022-12-12T23:01:27.056Z,33.83
2022-12-12T23:03:54.253Z,35.63
2022-12-12T23:06:33.213Z,38.05
2022-12-12T23:09:02.796Z,31.83
2022-12-12T23:11:30.590Z,39.55
2022-12-12T23:14:03.104Z,33.85
2022-12-12T23:16:30.981Z,33.08
2022-12-12T23:18:58.588Z,35.25
2022-12-12T23:21:25.973Z,31.67
2022-12-12T23:23:53.517Z,38.13
2022-12-12T23:26:23.862Z,32.15
2022-12-12T23:28:51.075Z,36.83
2022-12-12T23:31:21.902Z,34.72
2022-12-12T23:33:51.936Z,34.40
2022-12-12T23:36:18.643Z,38.35
2022-12-12T23:38:45.434Z,36.53
2022-12-12T23:41:16.418Z,35.17
2022-12-12T23:43:43.740Z,35.08
2022-12-12T23:46:28.454Z,37.92
2022-12-12T23:49:11.975Z,32.60
2022-12-12T23:51:44.291Z,38.42
2022-12-12T23:54:13.781Z,32.55
2022-12-12T23:56:40.952Z,31.95
2022-12-12T23:59:09.813Z,35.63
